Time;durP1;ratioP1;P1;durP2;ratioP2;P2;SDS_P1;SDS_P2;PMS_P1;PMS_P2;Temp;Humidity;BMP_temperature;BMP_pressure;BME280_temperature;BME280_humidity;BME280_pressure;Samples;Min_cycle;Max_cycle;Signal;HPM_P1;HPM_P2
2021/07/22 00:02:27;;;;;;;9.30;6.45;;;;;;;;;;3586111;40;20052;-61
2021/07/22 00:04:52;;;;;;;13.90;7.00;;;;;;;;;;3586355;40;20058;-61
2021/07/22 00:07:18;;;;;;;10.57;6.53;;;;;;;;;;3585954;40;20453;-61
2021/07/22 00:09:43;;;;;;;12.38;6.72;;;;;;;;;;3585830;40;20268;-60
2021/07/22 00:12:11;;;;;;;8.13;6.63;;;;;;;;;;3586365;40;20032;-60
2021/07/22 00:14:36;;;;;;;8.65;7.18;;;;;;;;;;3586286;40;20352;-61
2021/07/22 00:17:03;;;;;;;9.07;7.03;;;;;;;;;;3586937;40;20063;-60
2021/07/22 00:19:29;;;;;;;9.32;6.65;;;;;;;;;;3585444;40;20060;-60
2021/07/22 00:21:54;;;;;;;10.98;6.45;;;;;;;;;;3586351;40;20065;-61
2021/07/22 00:24:20;;;;;;;8.05;5.93;;;;;;;;;;3585896;40;20040;-60
2021/07/22 00:26:45;;;;;;;7.80;6.38;;;;;;;;;;3585478;40;20025;-60
2021/07/22 00:29:10;;;;;;;8.70;6.70;;;;;;;;;;3586052;40;20032;-60
2021/07/22 00:31:36;;;;;;;8.73;6.55;;;;;;;;;;3584778;40;20141;-60
2021/07/22 00:34:01;;;;;;;8.85;6.63;;;;;;;;;;3586485;40;20049;-60
2021/07/22 00:36:27;;;;;;;12.80;6.97;;;;;;;;;;3586667;40;20045;-61
2021/07/22 00:38:52;;;;;;;12.95;7.47;;;;;;;;;;3583329;40;20067;-61
2021/07/22 00:41:17;;;;;;;8.88;6.35;;;;;;;;;;3586386;40;20063;-60
2021/07/22 00:43:43;;;;;;;9.07;6.97;;;;;;;;;;3584016;40;20271;-60
2021/07/22 00:46:09;;;;;;;12.43;6.60;;;;;;;;;;3585513;40;20379;-60
2021/07/22 00:48:35;;;;;;;8.65;6.35;;;;;;;;;;3585686;40;20044;-60
2021/07/22 00:51:00;;;;;;;8.50;6.55;;;;;;;;;;3585800;40;20363;-60
2021/07/22 00:53:26;;;;;;;13.50;6.57;;;;;;;;;;3586197;40;20064;-60
2021/07/22 00:55:51;;;;;;;9.93;6.47;;;;;;;;;;3585705;40;20837;-60
2021/07/22 00:58:17;;;;;;;7.68;6.50;;;;;;;;;;3586108;40;20587;-61
2021/07/22 01:00:42;;;;;;;10.52;6.50;;;;;;;;;;3584884;40;20137;-61
2021/07/22 01:03:08;;;;;;;10.05;6.38;;;;;;;;;;3584317;40;20033;-61
2021/07/22 01:05:33;;;;;;;9.90;7.18;;;;;;;;;;3584403;40;20029;-60
2021/07/22 01:07:59;;;;;;;9.05;6.60;;;;;;;;;;3585190;40;20523;-60
2021/07/22 01:10:24;;;;;;;14.95;7.22;;;;;;;;;;3584614;40;20367;-61
2021/07/22 01:12:50;;;;;;;12.60;7.15;;;;;;;;;;3586049;40;20032;-60
2021/07/22 01:15:15;;;;;;;8.50;6.60;;;;;;;;;;3585760;40;20035;-60
2021/07/22 01:17:47;;;;;;;8.85;6.90;;;;;;;;;;3585774;40;20049;-61
2021/07/22 01:20:19;;;;;;;13.02;6.80;;;;;;;;;;3586093;40;20047;-60
2021/07/22 01:22:46;;;;;;;11.70;7.60;;;;;;;;;;3585123;40;20126;-61
2021/07/22 01:25:13;;;;;;;8.80;6.95;;;;;;;;;;3586411;40;20036;-60
2021/07/22 01:27:40;;;;;;;11.98;7.50;;;;;;;;;;3584495;40;20028;-61
2021/07/22 01:30:06;;;;;;;8.95;7.10;;;;;;;;;;3585844;40;20033;-61
2021/07/22 01:32:32;;;;;;;10.75;8.05;;;;;;;;;;3586148;40;20033;-61
2021/07/22 01:34:58;;;;;;;11.93;6.70;;;;;;;;;;3585653;40;20370;-60
2021/07/22 01:37:23;;;;;;;9.20;7.68;;;;;;;;;;3586372;40;20033;-60
2021/07/22 01:39:49;;;;;;;10.48;7.30;;;;;;;;;;3585361;40;20044;-61
2021/07/22 01:42:15;;;;;;;10.73;7.15;;;;;;;;;;3586061;40;20044;-61
2021/07/22 01:44:40;;;;;;;10.45;8.13;;;;;;;;;;3584713;40;20051;-61
2021/07/22 01:47:05;;;;;;;14.68;8.13;;;;;;;;;;3581370;40;20257;-61
2021/07/22 01:49:32;;;;;;;9.30;7.75;;;;;;;;;;3582422;40;20036;-61
2021/07/22 01:52:01;;;;;;;9.35;7.15;;;;;;;;;;3585092;40;20036;-60
2021/07/22 01:54:29;;;;;;;15.65;8.00;;;;;;;;;;3585977;40;20036;-59
2021/07/22 01:56:59;;;;;;;10.45;8.10;;;;;;;;;;3585603;40;20465;-59
2021/07/22 01:59:25;;;;;;;9.93;8.30;;;;;;;;;;3585784;40;20032;-59
2021/07/22 02:01:50;;;;;;;10.73;8.15;;;;;;;;;;3586115;40;20353;-59
2021/07/22 02:04:16;;;;;;;8.50;7.70;;;;;;;;;;3585802;40;20087;-59
2021/07/22 02:06:41;;;;;;;8.73;7.82;;;;;;;;;;3585225;40;20032;-59
2021/07/22 02:09:07;;;;;;;9.85;8.20;;;;;;;;;;3586161;40;20130;-59
2021/07/22 02:11:32;;;;;;;14.48;8.75;;;;;;;;;;3585523;40;20041;-59
2021/07/22 02:13:57;;;;;;;14.32;8.40;;;;;;;;;;3584487;40;20052;-60
2021/07/22 02:16:23;;;;;;;11.73;8.88;;;;;;;;;;3580408;40;20125;-61
2021/07/22 02:18:48;;;;;;;13.80;8.93;;;;;;;;;;3585622;40;20032;-60
2021/07/22 02:21:14;;;;;;;8.90;8.00;;;;;;;;;;3585543;40;20033;-60
2021/07/22 02:23:39;;;;;;;9.68;8.38;;;;;;;;;;3585345;40;20033;-60
2021/07/22 02:26:05;;;;;;;12.35;7.70;;;;;;;;;;3585375;40;20556;-60
2021/07/22 02:28:31;;;;;;;13.07;7.78;;;;;;;;;;3585406;40;20029;-60
2021/07/22 02:30:56;;;;;;;10.82;8.35;;;;;;;;;;3585307;40;20078;-62
2021/07/22 02:33:22;;;;;;;9.60;8.55;;;;;;;;;;3585333;40;20407;-59
2021/07/22 02:35:47;;;;;;;8.85;7.95;;;;;;;;;;3584732;40;20037;-60
2021/07/22 02:38:13;;;;;;;10.60;7.47;;;;;;;;;;3580979;40;20201;-60
2021/07/22 02:40:39;;;;;;;11.52;8.32;;;;;;;;;;3584086;40;20052;-61
2021/07/22 02:43:05;;;;;;;11.70;8.10;;;;;;;;;;3584844;40;20422;-60
2021/07/22 02:45:30;;;;;;;10.70;8.50;;;;;;;;;;3583721;40;20040;-61
2021/07/22 02:47:55;;;;;;;9.75;8.75;;;;;;;;;;3585074;40;20029;-61
2021/07/22 02:50:21;;;;;;;10.48;8.70;;;;;;;;;;3584108;40;20048;-60
2021/07/22 02:52:46;;;;;;;14.02;8.40;;;;;;;;;;3583578;40;20368;-60
2021/07/22 02:55:12;;;;;;;9.23;7.95;;;;;;;;;;3585501;40;20068;-61
2021/07/22 02:57:38;;;;;;;9.75;7.75;;;;;;;;;;3585545;40;20029;-61
2021/07/22 03:00:03;;;;;;;9.07;7.32;;;;;;;;;;3585591;40;20049;-61
2021/07/22 03:02:29;;;;;;;10.35;7.47;;;;;;;;;;3583840;40;20371;-60
2021/07/22 03:04:54;;;;;;;9.38;7.95;;;;;;;;;;3585324;40;20037;-61
2021/07/22 03:07:20;;;;;;;25.30;8.52;;;;;;;;;;3585464;40;20115;-60
2021/07/22 03:09:45;;;;;;;8.70;7.43;;;;;;;;;;3585103;40;20077;-60
2021/07/22 03:12:11;;;;;;;9.10;7.60;;;;;;;;;;3584317;40;20139;-60
2021/07/22 03:14:36;;;;;;;11.75;7.93;;;;;;;;;;3592774;39;20302;-60
2021/07/22 03:17:01;;;;;;;10.02;7.97;;;;;;;;;;3585373;40;20044;-60
2021/07/22 03:19:27;;;;;;;9.68;8.20;;;;;;;;;;3584834;40;20585;-60
2021/07/22 03:21:52;;;;;;;11.13;8.35;;;;;;;;;;3581410;40;20031;-60
2021/07/22 03:24:18;;;;;;;12.20;9.27;;;;;;;;;;3584692;40;20040;-60
2021/07/22 03:26:43;;;;;;;11.13;8.43;;;;;;;;;;3584057;40;20431;-60
2021/07/22 03:29:09;;;;;;;14.13;8.23;;;;;;;;;;3585722;40;20052;-60
2021/07/22 03:31:34;;;;;;;12.30;8.10;;;;;;;;;;3585365;40;20024;-60
2021/07/22 03:33:59;;;;;;;11.85;8.60;;;;;;;;;;3584503;40;20032;-60
2021/07/22 03:36:25;;;;;;;9.23;8.10;;;;;;;;;;3584435;40;20052;-60
2021/07/22 03:38:51;;;;;;;14.02;8.68;;;;;;;;;;3585762;40;20061;-60
2021/07/22 03:41:16;;;;;;;10.43;8.32;;;;;;;;;;3586297;40;20667;-59
2021/07/22 03:43:42;;;;;;;19.77;7.65;;;;;;;;;;3586195;40;20042;-59
2021/07/22 03:46:08;;;;;;;14.75;7.57;;;;;;;;;;3584879;40;20423;-60
2021/07/22 03:48:33;;;;;;;12.20;8.32;;;;;;;;;;3586657;40;20155;-60
2021/07/22 03:50:59;;;;;;;13.27;8.75;;;;;;;;;;3583875;40;20040;-60
2021/07/22 03:53:24;;;;;;;11.05;7.90;;;;;;;;;;3585718;40;20380;-60
2021/07/22 03:55:49;;;;;;;10.07;8.27;;;;;;;;;;3586308;40;20065;-60
2021/07/22 03:58:15;;;;;;;10.70;8.18;;;;;;;;;;3586477;40;20198;-61
2021/07/22 04:00:40;;;;;;;8.85;7.63;;;;;;;;;;3586426;40;20041;-60
2021/07/22 04:03:05;;;;;;;9.70;7.47;;;;;;;;;;3586282;40;20452;-60
2021/07/22 04:05:31;;;;;;;10.55;7.82;;;;;;;;;;3585640;40;20038;-60
2021/07/22 04:07:57;;;;;;;10.57;8.18;;;;;;;;;;3586762;40;20372;-60
2021/07/22 04:10:24;;;;;;;11.02;8.68;;;;;;;;;;3586501;40;20029;-60
2021/07/22 04:12:59;;;;;;;12.07;7.70;;;;;;;;;;3585736;40;20360;-60
2021/07/22 04:15:26;;;;;;;9.93;7.88;;;;;;;;;;3585314;40;20134;-59
2021/07/22 04:17:53;;;;;;;9.93;7.95;;;;;;;;;;3585468;40;20142;-61
2021/07/22 04:20:20;;;;;;;11.35;7.60;;;;;;;;;;3586004;40;20539;-61
2021/07/22 04:22:46;;;;;;;10.23;8.00;;;;;;;;;;3586453;40;20151;-60
2021/07/22 04:25:12;;;;;;;11.98;8.00;;;;;;;;;;3585748;40;20099;-60
2021/07/22 04:27:38;;;;;;;10.35;8.13;;;;;;;;;;3584896;40;20110;-61
2021/07/22 04:30:03;;;;;;;10.73;8.80;;;;;;;;;;3586497;40;20048;-60
2021/07/22 04:32:29;;;;;;;14.15;7.38;;;;;;;;;;3582583;40;20043;-60
2021/07/22 04:34:54;;;;;;;8.18;7.38;;;;;;;;;;3582997;40;20039;-60
2021/07/22 04:37:20;;;;;;;11.52;7.88;;;;;;;;;;3585588;40;20028;-60
2021/07/22 04:39:45;;;;;;;13.10;7.55;;;;;;;;;;3585953;40;20291;-61
2021/07/22 04:42:10;;;;;;;10.43;7.35;;;;;;;;;;3585155;40;20084;-61
2021/07/22 04:44:36;;;;;;;10.60;7.97;;;;;;;;;;3584856;40;20739;-61
2021/07/22 04:47:01;;;;;;;9.82;7.63;;;;;;;;;;3586425;40;20060;-61
2021/07/22 04:49:27;;;;;;;13.63;8.02;;;;;;;;;;3586386;40;20041;-61
2021/07/22 04:51:52;;;;;;;15.82;7.78;;;;;;;;;;3584890;40;20051;-61
2021/07/22 04:54:18;;;;;;;12.45;7.82;;;;;;;;;;3586534;40;20068;-61
2021/07/22 04:56:44;;;;;;;10.77;7.15;;;;;;;;;;3586131;40;20054;-61
2021/07/22 04:59:10;;;;;;;11.20;8.73;;;;;;;;;;3584840;40;20048;-61
2021/07/22 05:01:35;;;;;;;10.63;8.13;;;;;;;;;;3586151;40;20055;-61
2021/07/22 05:04:01;;;;;;;10.10;7.95;;;;;;;;;;3586321;40;20068;-61
2021/07/22 05:06:26;;;;;;;10.32;7.82;;;;;;;;;;3586314;40;20044;-61
2021/07/22 05:08:52;;;;;;;13.80;8.30;;;;;;;;;;3585499;40;20082;-61
2021/07/22 05:11:17;;;;;;;10.70;7.55;;;;;;;;;;3586374;40;20127;-60
2021/07/22 05:13:43;;;;;;;9.63;7.93;;;;;;;;;;3585917;40;20041;-61
2021/07/22 05:16:09;;;;;;;9.75;7.50;;;;;;;;;;3588185;40;20500;-61
2021/07/22 05:18:35;;;;;;;9.85;7.65;;;;;;;;;;3585964;40;20029;-61
2021/07/22 05:21:07;;;;;;;10.45;7.53;;;;;;;;;;3585834;40;20109;-60
2021/07/22 05:23:33;;;;;;;9.15;7.88;;;;;;;;;;3583895;40;20043;-61
2021/07/22 05:26:03;;;;;;;9.85;8.00;;;;;;;;;;3582562;40;20387;-61
2021/07/22 05:28:29;;;;;;;7.78;6.93;;;;;;;;;;3585335;40;20031;-61
2021/07/22 05:30:54;;;;;;;11.25;8.57;;;;;;;;;;3585438;40;20032;-60
2021/07/22 05:33:20;;;;;;;8.88;7.32;;;;;;;;;;3586105;40;20477;-61
2021/07/22 05:35:45;;;;;;;11.10;8.23;;;;;;;;;;3585712;40;20032;-61
2021/07/22 05:38:10;;;;;;;9.00;7.25;;;;;;;;;;3585854;40;20280;-61
2021/07/22 05:40:36;;;;;;;18.05;8.27;;;;;;;;;;3586004;40;20056;-61
2021/07/22 05:43:01;;;;;;;9.20;7.55;;;;;;;;;;3584160;40;20464;-61
2021/07/22 05:45:27;;;;;;;11.13;7.63;;;;;;;;;;3584183;40;20061;-61
2021/07/22 05:47:52;;;;;;;9.60;7.00;;;;;;;;;;3584859;40;20041;-61
2021/07/22 05:50:18;;;;;;;9.45;7.63;;;;;;;;;;3585663;40;20380;-61
2021/07/22 05:52:43;;;;;;;9.48;7.93;;;;;;;;;;3585829;40;20056;-61
2021/07/22 05:55:09;;;;;;;15.40;6.95;;;;;;;;;;3585918;40;20040;-61
2021/07/22 05:57:37;;;;;;;13.23;8.05;;;;;;;;;;3585306;40;20036;-61
2021/07/22 06:00:07;;;;;;;12.60;7.65;;;;;;;;;;3585972;40;20028;-61
2021/07/22 06:02:32;;;;;;;11.65;7.80;;;;;;;;;;3582832;40;20053;-61
2021/07/22 06:05:00;;;;;;;10.95;7.78;;;;;;;;;;3582731;40;20071;-61
2021/07/22 06:07:25;;;;;;;10.43;7.72;;;;;;;;;;3582682;40;20056;-61
2021/07/22 06:09:51;;;;;;;15.82;7.20;;;;;;;;;;3588281;40;20441;-61
2021/07/22 06:12:16;;;;;;;10.57;7.88;;;;;;;;;;3585347;40;20048;-60
2021/07/22 06:14:42;;;;;;;10.70;7.40;;;;;;;;;;3583246;40;20391;-61
2021/07/22 06:17:07;;;;;;;9.48;7.38;;;;;;;;;;3583158;40;20155;-61
2021/07/22 06:19:33;;;;;;;12.70;7.90;;;;;;;;;;3585985;40;20117;-61
2021/07/22 06:21:58;;;;;;;10.27;6.65;;;;;;;;;;3584187;40;20045;-61
2021/07/22 06:24:23;;;;;;;8.38;6.30;;;;;;;;;;3584909;40;20073;-61
2021/07/22 06:26:49;;;;;;;9.85;7.18;;;;;;;;;;3584956;40;20032;-61
2021/07/22 06:29:14;;;;;;;8.48;6.40;;;;;;;;;;3585174;40;20095;-61
2021/07/22 06:31:40;;;;;;;9.48;7.15;;;;;;;;;;3582120;40;20088;-60
2021/07/22 06:34:05;;;;;;;9.60;6.47;;;;;;;;;;3582517;40;20499;-61
2021/07/22 06:36:30;;;;;;;8.13;6.72;;;;;;;;;;3580755;40;20077;-60
2021/07/22 06:38:56;;;;;;;9.45;6.60;;;;;;;;;;3583941;40;20036;-60
2021/07/22 06:41:21;;;;;;;9.38;6.82;;;;;;;;;;3585252;40;20056;-61
2021/07/22 06:43:47;;;;;;;8.93;6.70;;;;;;;;;;3585357;40;20035;-61
2021/07/22 06:46:13;;;;;;;9.13;6.72;;;;;;;;;;3584960;40;20328;-61
2021/07/22 06:48:39;;;;;;;9.90;6.07;;;;;;;;;;3583813;40;20056;-61
2021/07/22 06:51:07;;;;;;;9.52;6.97;;;;;;;;;;3585667;40;20056;-61
2021/07/22 06:53:33;;;;;;;7.50;6.63;;;;;;;;;;3584719;40;20045;-61
2021/07/22 06:55:59;;;;;;;12.13;8.25;;;;;;;;;;3585397;40;20040;-61
2021/07/22 06:58:24;;;;;;;10.40;6.47;;;;;;;;;;3585196;40;20125;-61
2021/07/22 07:00:51;;;;;;;8.48;7.43;;;;;;;;;;3582712;40;20029;-61
2021/07/22 07:03:16;;;;;;;10.68;7.50;;;;;;;;;;3584190;40;20028;-61
2021/07/22 07:05:42;;;;;;;11.88;7.25;;;;;;;;;;3585333;40;20039;-61
2021/07/22 07:08:07;;;;;;;12.50;8.07;;;;;;;;;;3587063;40;20036;-60
2021/07/22 07:10:32;;;;;;;8.70;7.07;;;;;;;;;;3586562;40;20126;-60
2021/07/22 07:12:58;;;;;;;10.50;7.65;;;;;;;;;;3585608;40;20581;-61
2021/07/22 07:15:24;;;;;;;10.02;7.65;;;;;;;;;;3585636;40;20036;-60
2021/07/22 07:17:49;;;;;;;12.55;7.25;;;;;;;;;;3585160;40;20069;-60
2021/07/22 07:20:15;;;;;;;8.40;6.68;;;;;;;;;;3585876;40;20063;-61
2021/07/22 07:22:41;;;;;;;10.55;7.22;;;;;;;;;;3585803;40;20114;-61
2021/07/22 07:25:07;;;;;;;13.73;7.68;;;;;;;;;;3576606;40;20041;-60
2021/07/22 07:27:34;;;;;;;12.88;7.47;;;;;;;;;;3582478;40;20041;-60
2021/07/22 07:30:00;;;;;;;8.90;6.25;;;;;;;;;;3583746;40;20036;-60
2021/07/22 07:32:25;;;;;;;7.88;6.72;;;;;;;;;;3585645;40;20032;-60
2021/07/22 07:34:50;;;;;;;9.35;7.38;;;;;;;;;;3586187;40;20077;-61
2021/07/22 07:37:16;;;;;;;9.48;7.55;;;;;;;;;;3586403;40;20134;-60
2021/07/22 07:39:41;;;;;;;11.93;6.85;;;;;;;;;;3586490;40;20067;-60
2021/07/22 07:42:07;;;;;;;8.98;7.40;;;;;;;;;;3584806;40;20322;-61
2021/07/22 07:44:32;;;;;;;9.95;7.13;;;;;;;;;;3578120;40;20043;-62
2021/07/22 07:46:57;;;;;;;10.75;7.93;;;;;;;;;;3581125;40;20040;-62
2021/07/22 07:49:23;;;;;;;10.85;7.22;;;;;;;;;;3583649;40;20056;-61
2021/07/22 07:51:48;;;;;;;8.60;7.32;;;;;;;;;;3582812;40;20036;-62
2021/07/22 07:54:19;;;;;;;9.98;6.97;;;;;;;;;;3583854;40;20161;-62
2021/07/22 07:56:45;;;;;;;8.75;7.78;;;;;;;;;;3585365;40;20044;-62
2021/07/22 07:59:10;;;;;;;11.27;6.68;;;;;;;;;;3584799;40;20125;-62
2021/07/22 08:01:36;;;;;;;8.90;6.85;;;;;;;;;;3585089;40;20072;-62
2021/07/22 08:04:01;;;;;;;7.93;7.03;;;;;;;;;;3584752;40;20456;-62
2021/07/22 08:06:26;;;;;;;9.07;7.00;;;;;;;;;;3583760;40;20028;-61
2021/07/22 08:08:52;;;;;;;9.77;7.40;;;;;;;;;;3584190;40;20040;-62
2021/07/22 08:11:18;;;;;;;13.43;7.40;;;;;;;;;;3584664;40;20041;-62
2021/07/22 08:13:43;;;;;;;11.10;6.47;;;;;;;;;;3584132;40;20032;-62
2021/07/22 08:16:15;;;;;;;10.18;6.82;;;;;;;;;;3583118;40;20139;-62
2021/07/22 08:18:41;;;;;;;10.70;8.10;;;;;;;;;;3582455;40;20047;-62
2021/07/22 08:21:06;;;;;;;10.98;7.90;;;;;;;;;;3583360;40;20037;-62
2021/07/22 08:23:32;;;;;;;8.60;6.65;;;;;;;;;;3585317;40;20344;-62
2021/07/22 08:25:57;;;;;;;11.95;7.03;;;;;;;;;;3584207;40;20368;-61
2021/07/22 08:28:22;;;;;;;7.43;6.57;;;;;;;;;;3584401;40;20043;-62
2021/07/22 08:30:48;;;;;;;8.93;7.35;;;;;;;;;;3583686;40;20149;-62
2021/07/22 08:33:13;;;;;;;14.13;7.25;;;;;;;;;;3583831;40;20043;-62
2021/07/22 08:35:39;;;;;;;9.52;7.03;;;;;;;;;;3582922;40;20044;-62
2021/07/22 08:38:04;;;;;;;9.88;7.45;;;;;;;;;;3584446;40;20384;-62
2021/07/22 08:40:29;;;;;;;8.88;6.82;;;;;;;;;;3583750;40;20076;-62
2021/07/22 08:43:02;;;;;;;11.80;6.80;;;;;;;;;;3583996;40;20044;-63
2021/07/22 08:45:27;;;;;;;14.18;7.05;;;;;;;;;;3582168;40;20374;-61
2021/07/22 08:47:53;;;;;;;8.27;6.93;;;;;;;;;;3582430;40;20057;-62
2021/07/22 08:50:19;;;;;;;9.18;6.82;;;;;;;;;;3582612;40;20029;-62
2021/07/22 08:52:46;;;;;;;8.43;6.75;;;;;;;;;;3583158;40;20261;-61
2021/07/22 08:55:12;;;;;;;7.72;6.93;;;;;;;;;;3582320;40;20051;-62
2021/07/22 08:57:39;;;;;;;9.85;7.18;;;;;;;;;;3585110;40;20264;-62
2021/07/22 09:00:06;;;;;;;19.08;6.75;;;;;;;;;;3584523;40;20413;-62
2021/07/22 09:02:32;;;;;;;9.88;7.55;;;;;;;;;;3583567;40;20047;-61
2021/07/22 09:05:03;;;;;;;10.10;7.20;;;;;;;;;;3585000;40;20387;-62
2021/07/22 09:07:30;;;;;;;10.07;7.18;;;;;;;;;;3585130;40;20476;-62
2021/07/22 09:10:04;;;;;;;8.50;6.65;;;;;;;;;;3584754;40;20662;-62
2021/07/22 09:12:37;;;;;;;8.43;6.50;;;;;;;;;;3584126;40;20039;-62
2021/07/22 09:15:05;;;;;;;9.95;7.45;;;;;;;;;;3584065;40;20033;-61
2021/07/22 09:17:30;;;;;;;10.93;7.38;;;;;;;;;;3583703;40;20032;-62
2021/07/22 09:19:56;;;;;;;10.30;8.35;;;;;;;;;;3584537;40;20075;-62
2021/07/22 09:22:42;;;;;;;8.82;7.65;;;;;;;;;;3584799;40;20029;-62
2021/07/22 09:25:09;;;;;;;8.68;7.75;;;;;;;;;;3582001;40;20046;-61
2021/07/22 09:27:59;;;;;;;9.13;8.15;;;;;;;;;;3584103;40;20037;-61
2021/07/22 09:30:24;;;;;;;;;;;;;;;;;;3585127;40;20072;-62
2021/07/22 09:32:50;;;;;;;13.23;8.25;;;;;;;;;;3584372;40;19936;-61
2021/07/22 09:35:17;;;;;;;9.25;7.47;;;;;;;;;;3583535;40;20084;-62
2021/07/22 09:37:43;;;;;;;9.55;7.20;;;;;;;;;;3582364;40;20129;-61
2021/07/22 09:40:10;;;;;;;11.35;7.75;;;;;;;;;;3583456;40;20072;-61
2021/07/22 09:42:41;;;;;;;8.38;7.50;;;;;;;;;;3583762;40;20036;-61
2021/07/22 09:45:20;;;;;;;11.73;8.27;;;;;;;;;;3582416;40;20040;-61
2021/07/22 09:47:47;;;;;;;9.13;8.15;;;;;;;;;;3581940;40;20039;-62
2021/07/22 09:50:17;;;;;;;14.13;8.05;;;;;;;;;;3583733;40;20138;-61
2021/07/22 09:52:44;;;;;;;11.68;8.13;;;;;;;;;;3584500;40;20063;-61
2021/07/22 09:55:23;;;;;;;10.45;8.57;;;;;;;;;;3584053;40;20395;-61
2021/07/22 09:57:52;;;;;;;10.90;8.13;;;;;;;;;;3583782;40;20149;-61
2021/07/22 10:00:18;;;;;;;8.43;7.57;;;;;;;;;;3584521;40;20033;-61
2021/07/22 10:02:44;;;;;;;10.35;7.53;;;;;;;;;;3584338;40;20066;-61
2021/07/22 10:05:10;;;;;;;11.45;7.75;;;;;;;;;;3584321;40;20115;-60
2021/07/22 10:07:40;;;;;;;11.00;8.05;;;;;;;;;;3583477;40;20041;-61
2021/07/22 10:10:06;;;;;;;7.93;7.13;;;;;;;;;;3584093;40;20088;-61
2021/07/22 10:12:34;;;;;;;12.10;8.57;;;;;;;;;;3581835;40;20084;-61
2021/07/22 10:15:01;;;;;;;9.90;7.47;;;;;;;;;;3582774;40;20072;-61
2021/07/22 10:17:30;;;;;;;10.00;7.90;;;;;;;;;;3583096;40;20098;-61
2021/07/22 10:19:57;;;;;;;8.88;7.65;;;;;;;;;;3583269;40;20084;-61
2021/07/22 10:22:24;;;;;;;8.80;7.75;;;;;;;;;;3583714;40;20060;-61
2021/07/22 10:24:51;;;;;;;10.80;8.18;;;;;;;;;;3583956;40;20053;-61
2021/07/22 10:27:17;;;;;;;9.85;8.27;;;;;;;;;;3583845;40;20137;-61
2021/07/22 10:29:45;;;;;;;10.23;7.90;;;;;;;;;;3582589;40;20049;-61
2021/07/22 10:32:11;;;;;;;9.07;7.50;;;;;;;;;;3583403;40;20104;-61
2021/07/22 10:34:38;;;;;;;10.50;7.43;;;;;;;;;;3583024;40;20041;-60
2021/07/22 10:37:04;;;;;;;8.10;7.30;;;;;;;;;;3584024;40;20053;-61
2021/07/22 10:40:07;;;;;;;8.95;6.80;;;;;;;;;;3582325;40;20110;-60
2021/07/22 10:42:40;;;;;;;10.75;7.47;;;;;;;;;;3583319;40;20135;-61
2021/07/22 10:45:27;;;;;;;7.78;6.93;;;;;;;;;;3581713;40;20049;-60
2021/07/22 10:48:06;;;;;;;9.20;7.07;;;;;;;;;;3582037;40;20406;-61
2021/07/22 10:50:38;;;;;;;8.95;7.35;;;;;;;;;;3584578;40;20051;-61
2021/07/22 10:53:04;;;;;;;9.90;6.70;;;;;;;;;;3585845;40;20123;-60
2021/07/22 10:55:42;;;;;;;9.13;6.70;;;;;;;;;;3583088;40;20400;-60
2021/07/22 10:58:23;;;;;;;8.35;6.90;;;;;;;;;;3583166;40;20036;-60
2021/07/22 11:00:48;;;;;;;9.48;7.43;;;;;;;;;;3584619;40;20040;-60
2021/07/22 11:03:33;;;;;;;10.98;7.88;;;;;;;;;;3583241;40;20102;-60
2021/07/22 11:05:59;;;;;;;8.30;7.03;;;;;;;;;;3582954;40;20063;-61
2021/07/22 11:08:25;;;;;;;10.40;7.95;;;;;;;;;;3584073;40;20032;-60
2021/07/22 11:10:58;;;;;;;7.55;6.65;;;;;;;;;;3583763;40;20040;-61
2021/07/22 11:13:39;;;;;;;8.50;7.50;;;;;;;;;;3581388;40;20044;-60
2021/07/22 11:16:09;;;;;;;8.63;6.32;;;;;;;;;;3584155;40;20040;-61
2021/07/22 11:18:44;;;;;;;9.75;6.82;;;;;;;;;;3582847;40;20041;-59
2021/07/22 11:21:10;;;;;;;15.05;7.57;;;;;;;;;;3582495;40;20091;-61
2021/07/22 11:23:36;;;;;;;8.95;7.78;;;;;;;;;;3583359;40;20056;-59
2021/07/22 11:26:02;;;;;;;9.30;7.90;;;;;;;;;;3581740;40;20645;-59
2021/07/22 11:28:28;;;;;;;9.77;7.45;;;;;;;;;;3583975;40;20048;-59
2021/07/22 11:31:09;;;;;;;12.57;6.85;;;;;;;;;;3581731;40;20063;-61
2021/07/22 11:33:39;;;;;;;8.85;7.13;;;;;;;;;;3583154;40;20045;-60
2021/07/22 11:36:07;;;;;;;8.18;6.78;;;;;;;;;;3582945;40;20037;-60
2021/07/22 11:38:34;;;;;;;8.90;7.53;;;;;;;;;;3582865;40;20040;-61
2021/07/22 11:41:01;;;;;;;11.57;7.53;;;;;;;;;;3584653;40;20332;-58
2021/07/22 11:43:42;;;;;;;12.02;8.25;;;;;;;;;;3583720;40;20040;-59
2021/07/22 11:46:16;;;;;;;8.98;7.60;;;;;;;;;;3583272;40;20048;-60
2021/07/22 11:48:42;;;;;;;15.32;7.68;;;;;;;;;;3582809;40;20052;-60
2021/07/22 11:51:14;;;;;;;8.57;7.38;;;;;;;;;;3582167;40;20056;-60
2021/07/22 11:53:42;;;;;;;9.23;7.03;;;;;;;;;;3583772;40;20044;-61
2021/07/22 11:56:14;;;;;;;11.50;8.10;;;;;;;;;;3584638;40;20033;-60
2021/07/22 11:58:45;;;;;;;9.25;7.47;;;;;;;;;;3584679;40;20047;-60
2021/07/22 12:01:10;;;;;;;11.55;8.20;;;;;;;;;;3584373;40;20563;-60
2021/07/22 12:03:36;;;;;;;9.45;7.55;;;;;;;;;;3583609;40;20049;-60
2021/07/22 12:06:01;;;;;;;8.00;7.20;;;;;;;;;;3584724;40;20066;-60
2021/07/22 12:08:27;;;;;;;10.55;7.55;;;;;;;;;;3584551;40;20081;-60
2021/07/22 12:10:58;;;;;;;9.10;7.57;;;;;;;;;;3583905;40;20056;-60
2021/07/22 12:13:23;;;;;;;11.82;7.68;;;;;;;;;;3583228;40;20168;-59
2021/07/22 12:15:49;;;;;;;9.73;8.00;;;;;;;;;;3583693;40;20364;-60
2021/07/22 12:18:15;;;;;;;11.68;7.63;;;;;;;;;;3584615;40;20045;-60
2021/07/22 12:20:41;;;;;;;9.25;7.47;;;;;;;;;;3582764;40;20045;-60
2021/07/22 12:23:26;;;;;;;10.77;8.80;;;;;;;;;;3584058;40;20040;-60
2021/07/22 12:26:08;;;;;;;11.18;7.72;;;;;;;;;;3584650;40;20035;-60
2021/07/22 12:28:33;;;;;;;9.82;8.60;;;;;;;;;;3584242;40;20076;-60
2021/07/22 12:31:21;;;;;;;14.18;8.82;;;;;;;;;;3584507;40;20052;-60
2021/07/22 12:34:13;;;;;;;10.05;7.57;;;;;;;;;;3582284;40;20395;-60
2021/07/22 12:36:38;;;;;;;12.98;8.73;;;;;;;;;;3581463;40;20043;-60
2021/07/22 12:39:15;;;;;;;10.93;8.70;;;;;;;;;;3581461;40;20045;-60
2021/07/22 12:41:42;;;;;;;10.30;8.45;;;;;;;;;;3583354;40;20057;-59
2021/07/22 12:44:08;;;;;;;11.18;8.80;;;;;;;;;;3584405;40;20083;-60
2021/07/22 12:46:34;;;;;;;17.90;8.60;;;;;;;;;;3583035;40;20041;-60
2021/07/22 12:49:00;;;;;;;9.25;8.30;;;;;;;;;;3580518;40;20044;-61
2021/07/22 12:51:26;;;;;;;9.45;8.35;;;;;;;;;;3579188;40;20071;-61
2021/07/22 12:53:52;;;;;;;9.88;8.70;;;;;;;;;;3582679;40;20052;-61
2021/07/22 12:56:18;;;;;;;13.90;9.57;;;;;;;;;;3583354;40;20068;-61
2021/07/22 12:58:50;;;;;;;10.10;8.90;;;;;;;;;;3584581;40;20032;-61
2021/07/22 13:01:28;;;;;;;9.90;7.93;;;;;;;;;;3583469;40;20296;-61
2021/07/22 13:03:55;;;;;;;11.27;8.55;;;;;;;;;;3580247;40;20032;-61
2021/07/22 13:06:21;;;;;;;11.15;8.10;;;;;;;;;;3584671;40;20069;-61
2021/07/22 13:08:48;;;;;;;10.43;8.45;;;;;;;;;;3584487;40;20029;-61
2021/07/22 13:11:15;;;;;;;12.98;9.02;;;;;;;;;;3583852;40;20035;-60
2021/07/22 13:13:43;;;;;;;10.73;8.52;;;;;;;;;;3583244;40;20041;-60
2021/07/22 13:16:10;;;;;;;11.52;8.27;;;;;;;;;;3584762;40;20141;-61
2021/07/22 13:18:36;;;;;;;9.98;8.68;;;;;;;;;;3584478;40;20138;-61
2021/07/22 13:21:02;;;;;;;11.77;8.70;;;;;;;;;;3583706;40;20072;-61
2021/07/22 13:23:28;;;;;;;9.95;8.35;;;;;;;;;;3582147;40;20407;-61
2021/07/22 13:25:54;;;;;;;10.55;8.55;;;;;;;;;;3584205;40;20038;-61
2021/07/22 13:28:19;;;;;;;9.35;8.32;;;;;;;;;;3581940;40;20037;-61
2021/07/22 13:30:45;;;;;;;10.75;8.98;;;;;;;;;;3582203;40;20036;-61
2021/07/22 13:33:10;;;;;;;8.90;7.93;;;;;;;;;;3582487;40;20052;-61
2021/07/22 13:35:36;;;;;;;9.82;8.52;;;;;;;;;;3583901;40;20377;-60
2021/07/22 13:38:06;;;;;;;10.30;9.20;;;;;;;;;;3581935;40;20077;-60
2021/07/22 13:40:33;;;;;;;11.95;9.20;;;;;;;;;;3583563;40;20072;-60
2021/07/22 13:43:01;;;;;;;10.35;9.27;;;;;;;;;;3581458;40;20029;-59
2021/07/22 13:45:30;;;;;;;10.77;8.68;;;;;;;;;;3581387;40;20044;-59
2021/07/22 13:47:56;;;;;;;9.32;8.40;;;;;;;;;;3581589;40;20029;-60
2021/07/22 13:50:22;;;;;;;10.75;9.10;;;;;;;;;;3579371;40;20106;-59
2021/07/22 13:52:47;;;;;;;14.65;9.15;;;;;;;;;;3583630;40;20041;-59
2021/07/22 13:55:13;;;;;;;12.43;8.13;;;;;;;;;;3582498;40;20033;-60
2021/07/22 13:57:38;;;;;;;9.48;7.93;;;;;;;;;;3582338;40;20575;-59
2021/07/22 14:00:05;;;;;;;11.48;8.38;;;;;;;;;;3578946;40;20043;-60
2021/07/22 14:02:31;;;;;;;9.32;7.32;;;;;;;;;;3582902;40;20372;-60
2021/07/22 14:04:56;;;;;;;12.52;8.45;;;;;;;;;;3585126;40;20040;-61
2021/07/22 14:07:22;;;;;;;13.80;9.05;;;;;;;;;;3585323;40;20485;-61
2021/07/22 14:09:48;;;;;;;10.35;8.85;;;;;;;;;;3584967;40;20460;-61
2021/07/22 14:12:14;;;;;;;10.90;8.48;;;;;;;;;;3585371;40;20048;-62
2021/07/22 14:14:39;;;;;;;10.80;8.63;;;;;;;;;;3583359;40;20268;-61
2021/07/22 14:17:05;;;;;;;11.90;10.13;;;;;;;;;;3583641;40;20056;-61
2021/07/22 14:19:30;;;;;;;11.02;7.88;;;;;;;;;;3585178;40;20356;-61
2021/07/22 14:21:56;;;;;;;10.02;7.45;;;;;;;;;;3583879;40;20037;-61
2021/07/22 14:24:25;;;;;;;11.05;8.18;;;;;;;;;;3584280;40;20472;-61
2021/07/22 14:26:51;;;;;;;9.35;8.32;;;;;;;;;;3584615;40;20035;-61
2021/07/22 14:29:16;;;;;;;9.93;8.25;;;;;;;;;;3584353;40;20037;-60
2021/07/22 14:31:41;;;;;;;12.00;9.75;;;;;;;;;;3583660;40;20099;-61
2021/07/22 14:34:07;;;;;;;8.10;7.30;;;;;;;;;;3582690;40;20125;-61
2021/07/22 14:36:32;;;;;;;11.80;8.05;;;;;;;;;;3584911;40;20043;-61